createdAt,value
2022-09-11T00:00:11.803Z,8.03
2022-09-11T00:03:28.851Z,9.17
2022-09-11T00:06:44.746Z,8.55
2022-09-11T00:10:19.863Z,9.17
2022-09-11T00:13:35.862Z,8.30
2022-09-11T00:17:09.791Z,8.63
2022-09-11T00:20:25.858Z,9.87
2022-09-11T00:23:56.942Z,8.67
2022-09-11T00:27:13.864Z,9.17
2022-09-11T00:30:32.855Z,8.07
2022-09-11T00:33:36.924Z,8.90
2022-09-11T00:36:55.951Z,8.53
2022-09-11T00:40:00.005Z,8.43
2022-09-11T00:43:31.890Z,8.73
2022-09-11T00:46:48.958Z,9.70
2022-09-11T00:50:18.895Z,8.25
2022-09-11T00:53:32.901Z,8.20
2022-09-11T00:57:02.956Z,9.03
2022-09-11T01:00:20.036Z,9.33
2022-09-11T01:03:53.277Z,9.60
2022-09-11T01:07:27.038Z,8.95
2022-09-11T01:11:02.110Z,8.90
2022-09-11T01:14:18.038Z,9.27
2022-09-11T01:17:53.008Z,9.37
2022-09-11T01:21:13.046Z,9.13
2022-09-11T01:24:44.391Z,9.60
2022-09-11T01:28:14.004Z,8.95
2022-09-11T01:31:45.174Z,8.60
2022-09-11T01:35:13.310Z,8.60
2022-09-11T01:38:47.294Z,8.57
2022-09-11T01:42:15.188Z,8.73
2022-09-11T01:45:47.237Z,8.55
2022-09-11T01:49:15.177Z,9.40
2022-09-11T01:52:46.160Z,9.00
2022-09-11T01:56:02.177Z,9.07
2022-09-11T01:59:33.267Z,9.57
2022-09-11T02:03:05.158Z,8.70
2022-09-11T02:06:36.363Z,8.80
2022-09-11T02:10:07.185Z,8.20
2022-09-11T02:13:41.435Z,7.90
2022-09-11T02:17:10.337Z,8.63
2022-09-11T02:20:45.165Z,7.50
2022-09-11T02:24:04.432Z,7.80
2022-09-11T02:27:32.329Z,7.63
2022-09-11T02:30:49.265Z,7.45
2022-09-11T02:34:17.338Z,7.85
2022-09-11T02:37:49.367Z,8.40
2022-09-11T02:41:17.284Z,6.83
2022-09-11T02:44:47.521Z,7.03
2022-09-11T02:48:20.481Z,7.25
2022-09-11T02:51:52.464Z,7.10
2022-09-11T02:55:13.301Z,6.50
2022-09-11T02:58:44.359Z,6.30
2022-09-11T03:02:18.453Z,6.37
2022-09-11T03:05:50.449Z,6.80
2022-09-11T03:09:09.421Z,6.20
2022-09-11T03:12:47.482Z,6.80
2022-09-11T03:16:07.459Z,6.77
2022-09-11T03:19:24.435Z,6.20
2022-09-11T03:22:40.411Z,6.13
2022-09-11T03:26:00.404Z,7.03
2022-09-11T03:29:32.398Z,6.57
2022-09-11T03:32:52.541Z,6.07
2022-09-11T03:36:21.402Z,5.95
2022-09-11T03:39:52.703Z,5.93
2022-09-11T03:42:56.552Z,6.03
2022-09-11T03:46:34.493Z,6.20
2022-09-11T03:49:50.484Z,5.80
2022-09-11T03:53:09.539Z,5.73
2022-09-11T03:56:25.507Z,5.77
2022-09-11T03:59:41.616Z,5.90
2022-09-11T04:03:13.760Z,5.53
2022-09-11T04:06:34.626Z,5.60
2022-09-11T04:09:38.633Z,5.55
2022-09-11T04:12:57.616Z,5.30
2022-09-11T04:16:28.744Z,5.40
2022-09-11T04:20:01.661Z,4.90
2022-09-11T04:23:23.575Z,4.87
2022-09-11T04:26:53.661Z,4.70
2022-09-11T04:30:08.706Z,4.80
2022-09-11T04:33:27.720Z,5.20
2022-09-11T04:36:57.869Z,4.80
2022-09-11T04:40:16.756Z,4.63
2022-09-11T04:43:20.662Z,4.70
2022-09-11T04:46:48.750Z,4.50
2022-09-11T04:50:04.888Z,4.70
2022-09-11T04:53:38.805Z,3.97
2022-09-11T04:56:55.044Z,4.40
2022-09-11T05:00:11.876Z,4.00
2022-09-11T05:03:16.090Z,4.07
2022-09-11T05:06:40.711Z,4.57
2022-09-11T05:10:11.213Z,4.20
2022-09-11T05:13:36.046Z,4.07
2022-09-11T05:16:47.937Z,4.10
2022-09-11T05:20:11.206Z,4.10
2022-09-11T05:23:10.823Z,4.13
2022-09-11T05:26:41.793Z,4.00
2022-09-11T05:29:57.771Z,3.55
2022-09-11T05:33:16.957Z,4.10
2022-09-11T05:36:47.817Z,4.20
2022-09-11T05:40:19.343Z,4.00
2022-09-11T05:43:51.939Z,4.35
2022-09-11T05:47:08.918Z,3.75
2022-09-11T05:50:24.920Z,3.93
2022-09-11T05:53:55.898Z,3.80
2022-09-11T05:57:07.446Z,3.60
2022-09-11T06:00:36.873Z,3.70
2022-09-11T06:04:05.984Z,3.63
2022-09-11T06:07:21.921Z,3.57
2022-09-11T06:10:38.873Z,3.80
2022-09-11T06:14:07.042Z,4.00
2022-09-11T06:17:41.913Z,3.85
2022-09-11T06:21:09.924Z,3.50
2022-09-11T06:24:29.022Z,3.70
2022-09-11T06:27:47.948Z,4.13
2022-09-11T06:31:16.930Z,3.50
2022-09-11T06:34:49.050Z,3.60
2022-09-11T06:38:08.073Z,4.10
2022-09-11T06:41:36.208Z,3.30
2022-09-11T06:44:54.992Z,3.73
2022-09-11T06:48:11.065Z,3.20
2022-09-11T06:51:44.294Z,3.83
2022-09-11T06:54:48.073Z,3.20
2022-09-11T06:58:04.067Z,3.10
2022-09-11T07:01:32.150Z,3.80
2022-09-11T07:04:54.281Z,3.37
2022-09-11T07:08:26.064Z,3.00
2022-09-11T07:11:57.232Z,3.43
2022-09-11T07:15:23.076Z,3.37
2022-09-11T07:18:54.233Z,3.17
2022-09-11T07:22:10.208Z,3.07
2022-09-11T07:25:43.316Z,3.13
2022-09-11T07:28:59.100Z,3.00
2022-09-11T07:32:15.280Z,2.80
2022-09-11T07:35:31.387Z,3.83
2022-09-11T07:38:50.281Z,3.00
2022-09-11T07:42:19.312Z,2.83
2022-09-11T07:45:36.188Z,2.67
2022-09-11T07:49:07.315Z,2.60
2022-09-11T07:52:26.516Z,2.83
2022-09-11T07:55:42.335Z,2.80
2022-09-11T07:59:15.264Z,2.70
2022-09-11T08:02:32.285Z,2.70
2022-09-11T08:05:51.468Z,2.97
2022-09-11T08:09:19.419Z,2.63
2022-09-11T08:12:41.379Z,2.60
2022-09-11T08:16:17.357Z,2.17
2022-09-11T08:19:48.417Z,2.90
2022-09-11T08:23:04.668Z,2.90
2022-09-11T08:26:32.344Z,3.10
2022-09-11T08:29:51.417Z,2.85
2022-09-11T08:33:21.388Z,2.95
2022-09-11T08:36:49.415Z,3.03
2022-09-11T08:40:08.413Z,2.93
2022-09-11T08:43:36.480Z,3.03
2022-09-11T08:47:07.681Z,3.57
2022-09-11T08:50:38.503Z,2.93
2022-09-11T08:54:09.503Z,2.70
2022-09-11T08:57:41.590Z,2.50
2022-09-11T09:01:11.549Z,2.73
2022-09-11T09:04:43.596Z,2.77
2022-09-11T09:08:21.412Z,2.70
2022-09-11T09:11:50.590Z,2.80
2022-09-11T09:15:30.540Z,2.50
2022-09-11T09:18:58.640Z,2.93
2022-09-11T09:22:31.531Z,3.05
2022-09-11T09:26:07.623Z,3.00
2022-09-11T09:29:41.545Z,2.85
2022-09-11T09:33:13.136Z,2.70
2022-09-11T09:36:40.826Z,2.50
2022-09-11T09:40:09.759Z,2.60
2022-09-11T09:43:45.536Z,3.00
2022-09-11T09:47:01.580Z,2.75
2022-09-11T09:50:29.697Z,2.50
2022-09-11T09:53:49.626Z,3.17
2022-09-11T09:57:17.559Z,2.90
2022-09-11T10:00:38.652Z,2.80
2022-09-11T10:03:57.708Z,2.37
2022-09-11T10:07:13.780Z,2.60
2022-09-11T10:10:54.737Z,4.73
2022-09-11T10:14:13.684Z,3.00
2022-09-11T10:17:47.735Z,3.33
2022-09-11T10:21:08.090Z,3.23
2022-09-11T10:24:46.686Z,3.20
2022-09-11T10:28:02.837Z,2.90
2022-09-11T10:31:31.903Z,3.27
2022-09-11T10:34:52.724Z,3.63
2022-09-11T10:38:27.786Z,3.63
2022-09-11T10:41:43.996Z,2.93
2022-09-11T10:45:14.769Z,2.63
2022-09-11T10:48:40.778Z,2.90
2022-09-11T10:52:10.781Z,2.90
2022-09-11T10:55:32.812Z,2.53
2022-09-11T10:59:06.830Z,2.77
2022-09-11T11:02:10.843Z,2.20
2022-09-11T11:05:43.828Z,2.00
2022-09-11T11:09:11.837Z,2.13
2022-09-11T11:12:54.841Z,2.33
2022-09-11T11:16:12.039Z,2.63
2022-09-11T11:19:44.091Z,2.10
2022-09-11T11:23:05.810Z,2.20
2022-09-11T11:26:43.897Z,2.27
2022-09-11T11:30:07.935Z,2.17
2022-09-11T11:33:41.843Z,1.90
2022-09-11T11:36:57.935Z,2.30
2022-09-11T11:40:29.026Z,2.10
2022-09-11T11:43:49.010Z,1.80
2022-09-11T11:47:23.954Z,1.80
2022-09-11T11:50:39.964Z,1.80
2022-09-11T11:54:11.045Z,2.07
2022-09-11T11:57:27.056Z,2.05
2022-09-11T12:01:00.030Z,2.03
2022-09-11T12:04:37.005Z,1.87
2022-09-11T12:07:53.148Z,2.00
2022-09-11T12:11:27.102Z,2.37
2022-09-11T12:14:52.137Z,1.83
2022-09-11T12:18:27.172Z,1.80
2022-09-11T12:21:51.012Z,1.60
2022-09-11T12:25:22.039Z,1.60
2022-09-11T12:28:38.007Z,1.63
2022-09-11T12:32:11.110Z,1.40
2022-09-11T12:35:36.598Z,1.87
2022-09-11T12:39:10.137Z,1.70
2022-09-11T12:42:34.067Z,1.20
2022-09-11T12:46:02.165Z,1.90
2022-09-11T12:49:22.538Z,1.40
2022-09-11T12:53:00.084Z,1.50
2022-09-11T12:56:19.331Z,1.13
2022-09-11T12:59:50.340Z,1.50
2022-09-11T13:03:06.324Z,1.50
2022-09-11T13:06:38.252Z,1.60
2022-09-11T13:09:55.263Z,1.20
2022-09-11T13:13:24.278Z,1.20
2022-09-11T13:16:46.459Z,1.40
2022-09-11T13:20:05.343Z,1.40
2022-09-11T13:23:21.357Z,1.70
2022-09-11T13:26:56.439Z,1.30
2022-09-11T13:30:12.311Z,1.10
2022-09-11T13:33:43.390Z,1.30
2022-09-11T13:37:00.345Z,1.70
2022-09-11T13:40:28.355Z,1.33
2022-09-11T13:43:48.281Z,1.50
2022-09-11T13:47:10.296Z,1.50
2022-09-11T13:50:29.291Z,1.45
2022-09-11T13:54:03.561Z,1.37
2022-09-11T13:57:37.444Z,1.70
2022-09-11T14:01:10.353Z,1.40
2022-09-11T14:04:41.384Z,1.40
2022-09-11T14:08:01.322Z,1.60
2022-09-11T14:11:29.520Z,1.33
2022-09-11T14:14:46.309Z,1.50
2022-09-11T14:18:18.403Z,1.30
2022-09-11T14:21:40.328Z,1.50
2022-09-11T14:25:16.439Z,1.40
2022-09-11T14:28:20.407Z,1.40
2022-09-11T14:31:57.552Z,1.40
2022-09-11T14:35:17.581Z,1.57
2022-09-11T14:38:48.447Z,1.40
2022-09-11T14:41:52.733Z,1.40
2022-09-11T14:45:09.565Z,1.80
2022-09-11T14:48:16.532Z,1.10
2022-09-11T14:51:54.485Z,1.20
2022-09-11T14:55:10.664Z,1.30
2022-09-11T14:58:29.539Z,1.30
2022-09-11T15:01:35.701Z,1.33
2022-09-11T15:05:04.708Z,1.50
2022-09-11T15:08:21.579Z,1.30
2022-09-11T15:11:39.476Z,1.23
2022-09-11T15:14:58.749Z,1.30
2022-09-11T15:18:00.687Z,1.43
2022-09-11T15:21:04.658Z,1.30
2022-09-11T15:24:36.732Z,1.60
2022-09-11T15:27:40.687Z,1.40
2022-09-11T15:30:56.702Z,1.30
2022-09-11T15:34:12.600Z,1.27
2022-09-11T15:37:40.761Z,1.40
2022-09-11T15:41:11.679Z,1.40
2022-09-11T15:44:42.825Z,1.10
2022-09-11T15:47:46.565Z,1.40
2022-09-11T15:51:27.625Z,1.40
2022-09-11T15:54:43.779Z,1.63
2022-09-11T15:58:18.926Z,1.40
2022-09-11T16:01:34.732Z,1.80
2022-09-11T16:05:06.730Z,1.17
2022-09-11T16:08:10.721Z,1.40
2022-09-11T16:11:38.791Z,1.33
2022-09-11T16:14:55.635Z,1.27
2022-09-11T16:18:14.708Z,1.07
2022-09-11T16:21:33.884Z,1.27
2022-09-11T16:25:01.791Z,1.17
2022-09-11T16:28:05.811Z,1.40
2022-09-11T16:31:40.974Z,1.30
2022-09-11T16:34:44.838Z,1.23
2022-09-11T16:38:03.815Z,1.40
2022-09-11T16:41:26.962Z,1.27
2022-09-11T16:44:42.966Z,1.30
2022-09-11T16:48:02.902Z,1.07
2022-09-11T16:51:33.916Z,1.50
2022-09-11T16:54:37.914Z,1.30
2022-09-11T16:57:54.191Z,1.43
2022-09-11T17:01:12.949Z,1.57
2022-09-11T17:04:46.026Z,1.45
2022-09-11T17:08:01.985Z,1.33
2022-09-11T17:11:17.998Z,1.60
2022-09-11T17:14:21.949Z,1.93
2022-09-11T17:17:41.069Z,1.67
2022-09-11T17:20:59.173Z,1.70
2022-09-11T17:24:30.964Z,1.30
2022-09-11T17:27:34.990Z,1.60
2022-09-11T17:30:54.021Z,1.47
2022-09-11T17:34:11.091Z,1.50
2022-09-11T17:37:46.129Z,1.60
2022-09-11T17:41:01.987Z,1.50
2022-09-11T17:44:21.016Z,1.60
2022-09-11T17:47:24.916Z,1.30
2022-09-11T17:50:44.163Z,1.57
2022-09-11T17:54:04.176Z,1.40
2022-09-11T17:57:23.110Z,1.70
2022-09-11T18:00:27.322Z,1.40
2022-09-11T18:03:58.162Z,1.57
2022-09-11T18:07:02.055Z,1.60
2022-09-11T18:10:34.187Z,1.70
2022-09-11T18:13:53.084Z,1.30
2022-09-11T18:17:15.084Z,1.30
2022-09-11T18:20:31.230Z,1.90
2022-09-11T18:24:09.902Z,1.40
2022-09-11T18:27:25.202Z,1.57
2022-09-11T18:30:41.418Z,1.53
2022-09-11T18:33:45.404Z,1.47
2022-09-11T18:37:16.654Z,1.70
2022-09-11T18:44:06.384Z,1.60
2022-09-11T18:47:26.127Z,1.63
2022-09-11T18:50:30.213Z,1.80
2022-09-11T18:54:01.277Z,1.90
2022-09-11T18:57:11.402Z,2.00
2022-09-11T19:00:45.263Z,1.97
2022-09-11T19:04:01.376Z,2.05
2022-09-11T19:07:18.406Z,1.73
2022-09-11T19:10:22.280Z,2.00
2022-09-11T19:13:44.488Z,1.70
2022-09-11T19:17:07.349Z,1.53
2022-09-11T19:20:24.299Z,1.53
2022-09-11T19:23:28.340Z,1.70
2022-09-11T19:27:00.160Z,1.70
2022-09-11T19:30:03.564Z,1.60
2022-09-11T19:33:42.354Z,1.57
2022-09-11T19:37:00.129Z,1.80
2022-09-11T19:40:20.335Z,1.65
2022-09-11T19:43:24.398Z,1.43
2022-09-11T19:46:57.264Z,1.50
2022-09-11T19:50:20.368Z,1.30
2022-09-11T19:53:54.398Z,1.60
2022-09-11T19:57:00.249Z,1.50
2022-09-11T20:00:32.547Z,1.47
2022-09-11T20:03:48.484Z,1.50
2022-09-11T20:07:05.495Z,1.53
2022-09-11T20:10:21.438Z,1.40
2022-09-11T20:13:37.481Z,1.40
2022-09-11T20:16:54.559Z,1.37
2022-09-11T20:19:59.925Z,1.40
2022-09-11T20:23:34.578Z,1.63
2022-09-11T20:26:50.493Z,1.40
2022-09-11T20:30:21.609Z,1.60
2022-09-11T20:33:38.607Z,1.50
2022-09-11T20:36:54.502Z,1.70
2022-09-11T20:40:11.754Z,1.67
2022-09-11T20:43:27.871Z,1.70
2022-09-11T20:46:31.640Z,1.70
2022-09-11T20:49:50.693Z,2.40
2022-09-11T20:52:55.698Z,1.83
2022-09-11T20:56:33.577Z,1.90
2022-09-11T20:59:49.674Z,1.83
2022-09-11T21:03:08.588Z,1.80
2022-09-11T21:06:26.052Z,1.70
2022-09-11T21:09:59.695Z,1.65
2022-09-11T21:13:16.834Z,1.70
2022-09-11T21:16:36.722Z,1.60
2022-09-11T21:19:40.930Z,1.70
2022-09-11T21:22:57.768Z,1.70
2022-09-11T21:26:01.748Z,1.97
2022-09-11T21:29:37.865Z,1.70
2022-09-11T21:32:41.814Z,1.60
2022-09-11T21:36:16.734Z,1.73
2022-09-11T21:39:20.743Z,1.87
2022-09-11T21:42:37.714Z,1.87
2022-09-11T21:45:55.012Z,1.53
2022-09-11T21:49:11.739Z,1.90
2022-09-11T21:52:27.889Z,1.63
2022-09-11T21:55:58.739Z,1.77
2022-09-11T21:59:14.805Z,2.00
2022-09-11T22:02:46.792Z,1.80
2022-09-11T22:06:06.087Z,1.70
2022-09-11T22:09:21.855Z,1.80
2022-09-11T22:12:37.844Z,2.07
2022-09-11T22:15:41.959Z,1.93
2022-09-11T22:19:14.878Z,2.17
2022-09-11T22:22:30.905Z,2.20
2022-09-11T22:25:49.977Z,2.10
2022-09-11T22:29:08.912Z,2.35
2022-09-11T22:32:27.986Z,2.20
2022-09-11T22:35:49.394Z,2.10
2022-09-11T22:39:18.109Z,2.47
2022-09-11T22:42:21.947Z,2.10
2022-09-11T22:45:38.922Z,2.50
2022-09-11T22:48:55.000Z,2.55
2022-09-11T22:52:25.056Z,2.60
2022-09-11T22:55:29.001Z,2.30
2022-09-11T22:58:57.989Z,2.33
2022-09-11T23:02:02.024Z,2.90
2022-09-11T23:05:37.833Z,2.53
2022-09-11T23:08:55.998Z,2.77
2022-09-11T23:12:17.996Z,2.90
2022-09-11T23:15:34.142Z,2.57
2022-09-11T23:18:53.007Z,2.70
2022-09-11T23:21:57.150Z,2.80
2022-09-11T23:25:32.048Z,3.75
2022-09-11T23:28:36.272Z,3.00
2022-09-11T23:32:08.067Z,3.43
2022-09-11T23:35:12.190Z,3.07
2022-09-11T23:38:31.180Z,2.85
2022-09-11T23:41:51.108Z,3.27
2022-09-11T23:45:10.114Z,3.13
2022-09-11T23:48:14.126Z,3.20
2022-09-11T23:51:33.255Z,3.40
2022-09-11T23:54:37.259Z,3.85
2022-09-11T23:58:12.279Z,3.55
